• Join FlightAware (Why Join?)
  • Login
  • US Flag 
08:20AM EDT


 

Airport Tracker/Info


-or-


 

Live Flight TrackerFlight Track Log ✈ SWA2740 ✈ 06-May-2012 ✈ KHOU - KMSY

Flight Track Log - Related Links

Times and Time Zones

All times are in EDT time to prevent confusion due to time zone crossing. See the SWA2740 flight status page for this flight to view local times or setup timezone preferences in your user account.

Time Position Orientation Groundspeed Altitude Reporting Facility
EDT Latitude Longitude Course Direction KTS MPH feet Rate Location/Type
08:00AM 29.7048 -94.5475 264° West  Level FlightAware Approximate
08:01AM 29.7162 -94.4495 264° West  Level FlightAware Approximate
08:02AM 29.6381 -95.2889 88° East 116 133 1,300  Level Houston Center
08:07AM 29.6542 -94.8186 81° East 356 410 21,700 3,720 Climbing Houston Center
08:08AM 29.6717 -94.6900 80° East 385 443 24,400 2,820 Climbing Houston Center
08:09AM 29.6914 -94.5544 82° East 409 471 27,400 3,540 Climbing Houston Center
08:10AM 29.7086 -94.4208 82° East 419 482 31,500 2,760 Climbing Houston Center
08:11AM 29.7239 -94.2922 80° East 409 471 33,000 600 Climbing Houston Center
08:12AM 29.7431 -94.1611 84° East 417 480 32,700 -600 Descending Houston Center
08:13AM 29.7533 -94.0489 81° East 405 466 31,800 -900 Descending Houston Center
08:14AM 29.7700 -93.9200 80° East 405 466 31,000 -420 Descending Houston Center
08:15AM 29.7889 -93.7914 83° East 405 466 31,000  Level Houston Center
08:16AM 29.8014 -93.6647 81° East 405 466 31,000  Level Houston Center
08:17AM 29.8178 -93.5381 81° East 405 466 31,000  Level Houston Center
08:18AM 29.8361 -93.4092 84° East 405 466 31,000  Level Houston Center
08:19AM 29.8481 -93.2800 81° East 405 466 31,000  Level Houston Center
08:20AM 29.8664 -93.1389 81° East 410 472 31,000  Level Houston Center
08:21AM 29.8844 -93.0122 83° East 405 466 31,000  Level Houston Center
08:22AM 29.8983 -92.8856 82° East 405 466 31,000  Level Houston Center
08:23AM 29.9139 -92.7561 81° East 405 466 31,000  Level Houston Center
08:24AM 29.9317 -92.6294 83° East 405 466 31,000  Level Houston Center
08:25AM 29.9450 -92.5000 81° East 410 472 31,000  Level Houston Center
08:26AM 29.9625 -92.3708 84° East 410 472 31,000  Level Houston Center
08:27AM 29.9733 -92.2436 81° East 410 472 31,000  Level Houston Center
08:28AM 29.9906 -92.1144 83° East 410 472 31,000 -420 Level Houston Center
08:29AM 30.0036 -91.9847 83° East 405 466 30,200 -1,800 Descending Houston Center
08:30AM 30.0164 -91.8553 84° East 405 466 27,500 -2,640 Descending Houston Center
08:31AM 30.0289 -91.7258 82° East 405 466 25,000 -2,400 Descending Houston Center
08:32AM 30.0436 -91.5964 79° East 405 466 22,700 -2,340 Descending Houston Center
08:33AM 30.0644 -91.4739 84° East 405 466 20,400 -2,220 Descending Houston Center
08:34AM 30.0747 -91.3539 86° East 386 444 18,300 -2,160 Descending Houston Center
08:34AM 30.0786 -91.2892 86° East 368 423 17,100 -1,860 Descending Houston Center
08:36AM 30.0867 -91.1642 95° East 345 397 15,200 -2,160 Descending Houston Center
08:37AM 30.0800 -91.0753 96° East 336 387 12,800 -2,340 Descending Houston Center
08:38AM 30.0689 -90.9506 101° East 333 383 10,500 -1,680 Descending Houston Center
08:39AM 30.0539 -90.8594 89° East 298 343 9,300 -1,620 Descending Houston Center
08:40AM 30.0553 -90.7781 90° East 280 322 7,500 -2,280 Descending Houston Center
08:41AM 30.0547 -90.6917 90° East 273 314 5,000 -1,740 Descending Houston Center
08:42AM 30.0542 -90.6125 93° East 245 282 4,100 -540 Descending Houston Center
08:42AM 30.0517 -90.5475 101° East 225 259 4,000 -600 Descending Houston Center
08:44AM 30.0383 -90.4711 104° East 226 260 2,900 -1,080 Descending Houston Center
08:45AM 30.0231 -90.4017 106° East 206 237 1,800 -960 Descending Houston Center
08:46AM 30.0103 -90.3514 107° East 170 196 1,000 -720 Descending Houston Center
08:47AM 29.9992 -90.3083 101° East 136 157 400 12,840 Descending Houston Center
08:48AM 29.9883 -90.2436 105° East 153 176 31,000 13,080 Climbing Houston Center
08:49AM 29.9772 -90.1958 287° West 153 176 31,000  Level Houston Center
08:56AM 30.1664 -90.9320 107° East  Level Estimated
08:57AM 29.9833 -90.2500 107° East  Level FlightAware Approximate